Airport View

Enter AWOS ICAO identifier for current METAR.

ex. KFNL

PFNO 210056Z AUTO 28009KT 9SM BKN035 07/M02 A2947 RMK AO2 SLP981 T00721017

21 Sep 2019 01:26

Frequency: 120.00

Phone: 907-636-2010

Other Area AWOS: PAIK - PASK - PAOT - PABL

TAF PAOT 202334Z 2100/2124 27006KT P6SM VCSH SCT025 BKN035 OVC050 FM211200 24006KT P6SM VCSH SCT025 BKN035 OVC050